sensor_id;sensor_type;location;lat;lon;timestamp;temperature;humidity
9414;DHT22;4746;35.664;139.738;2023-08-06T00:00:44;32.10;99.90
9414;DHT22;4746;35.664;139.738;2023-08-06T00:03:12;32.10;99.90
9414;DHT22;4746;35.664;139.738;2023-08-06T00:05:42;32.10;99.90
9414;DHT22;4746;35.664;139.738;2023-08-06T00:08:09;32.10;99.90
9414;DHT22;4746;35.664;139.738;2023-08-06T00:10:39;32.10;99.90
9414;DHT22;4746;35.664;139.738;2023-08-06T00:13:08;32.00;99.90
9414;DHT22;4746;35.664;139.738;2023-08-06T00:15:36;32.00;99.90
9414;DHT22;4746;35.664;139.738;2023-08-06T00:18:03;32.00;99.90
9414;DHT22;4746;35.664;139.738;2023-08-06T00:20:31;32.00;99.90
9414;DHT22;4746;35.664;139.738;2023-08-06T00:22:58;32.10;99.90
9414;DHT22;4746;35.664;139.738;2023-08-06T00:25:26;32.20;99.90
9414;DHT22;4746;35.664;139.738;2023-08-06T00:27:56;32.20;99.90
9414;DHT22;4746;35.664;139.738;2023-08-06T00:30:24;32.30;99.90
9414;DHT22;4746;35.664;139.738;2023-08-06T00:32:51;32.30;99.90
9414;DHT22;4746;35.664;139.738;2023-08-06T00:35:19;32.30;99.90
9414;DHT22;4746;35.664;139.738;2023-08-06T00:37:46;32.30;99.90
9414;DHT22;4746;35.664;139.738;2023-08-06T00:40:15;32.30;99.90
9414;DHT22;4746;35.664;139.738;2023-08-06T00:42:43;32.40;99.90
9414;DHT22;4746;35.664;139.738;2023-08-06T00:45:11;32.40;99.90
9414;DHT22;4746;35.664;139.738;2023-08-06T00:47:38;32.50;99.90
9414;DHT22;4746;35.664;139.738;2023-08-06T00:50:07;32.40;99.90
9414;DHT22;4746;35.664;139.738;2023-08-06T00:52:36;32.50;99.90
9414;DHT22;4746;35.664;139.738;2023-08-06T00:55:04;32.60;99.90
9414;DHT22;4746;35.664;139.738;2023-08-06T00:57:34;32.60;99.90
9414;DHT22;4746;35.664;139.738;2023-08-06T01:00:03;32.70;99.90
9414;DHT22;4746;35.664;139.738;2023-08-06T01:02:31;32.70;99.90
9414;DHT22;4746;35.664;139.738;2023-08-06T01:04:59;32.70;99.90
9414;DHT22;4746;35.664;139.738;2023-08-06T01:07:48;32.70;99.90
9414;DHT22;4746;35.664;139.738;2023-08-06T01:16:18;32.70;99.90
9414;DHT22;4746;35.664;139.738;2023-08-06T01:18:50;32.70;99.90
9414;DHT22;4746;35.664;139.738;2023-08-06T01:21:18;32.70;99.90
9414;DHT22;4746;35.664;139.738;2023-08-06T01:23:48;32.70;99.90
9414;DHT22;4746;35.664;139.738;2023-08-06T01:26:33;32.70;99.90
9414;DHT22;4746;35.664;139.738;2023-08-06T01:29:28;32.70;99.90
9414;DHT22;4746;35.664;139.738;2023-08-06T01:32:20;32.70;99.90
9414;DHT22;4746;35.664;139.738;2023-08-06T01:34:50;32.60;99.90
9414;DHT22;4746;35.664;139.738;2023-08-06T01:37:18;32.60;99.90
9414;DHT22;4746;35.664;139.738;2023-08-06T01:39:46;32.60;99.90
9414;DHT22;4746;35.664;139.738;2023-08-06T01:42:16;32.70;99.90
9414;DHT22;4746;35.664;139.738;2023-08-06T01:44:43;32.60;99.90
9414;DHT22;4746;35.664;139.738;2023-08-06T01:47:32;32.60;99.90
9414;DHT22;4746;35.664;139.738;2023-08-06T01:50:09;32.70;99.90
9414;DHT22;4746;35.664;139.738;2023-08-06T01:52:41;32.70;99.90
9414;DHT22;4746;35.664;139.738;2023-08-06T01:55:09;32.80;99.90
9414;DHT22;4746;35.664;139.738;2023-08-06T01:57:36;32.80;99.90
9414;DHT22;4746;35.664;139.738;2023-08-06T02:00:04;32.90;99.90
9414;DHT22;4746;35.664;139.738;2023-08-06T02:02:33;32.90;99.90
9414;DHT22;4746;35.664;139.738;2023-08-06T02:05:00;33.00;99.90
9414;DHT22;4746;35.664;139.738;2023-08-06T02:07:28;33.00;99.90
9414;DHT22;4746;35.664;139.738;2023-08-06T02:09:55;32.90;99.90
9414;DHT22;4746;35.664;139.738;2023-08-06T02:12:23;32.90;99.90
9414;DHT22;4746;35.664;139.738;2023-08-06T02:14:50;33.00;99.90
9414;DHT22;4746;35.664;139.738;2023-08-06T02:17:18;33.10;99.90
9414;DHT22;4746;35.664;139.738;2023-08-06T02:19:45;33.20;99.90
9414;DHT22;4746;35.664;139.738;2023-08-06T02:22:13;33.40;99.90
9414;DHT22;4746;35.664;139.738;2023-08-06T02:24:40;33.60;99.90
9414;DHT22;4746;35.664;139.738;2023-08-06T02:27:08;33.60;99.90
9414;DHT22;4746;35.664;139.738;2023-08-06T02:29:35;33.70;99.90
9414;DHT22;4746;35.664;139.738;2023-08-06T02:32:04;33.70;99.90
9414;DHT22;4746;35.664;139.738;2023-08-06T02:34:31;33.80;99.90
9414;DHT22;4746;35.664;139.738;2023-08-06T02:37:01;33.90;99.90
9414;DHT22;4746;35.664;139.738;2023-08-06T02:39:29;34.00;99.90
9414;DHT22;4746;35.664;139.738;2023-08-06T02:41:56;34.10;99.90
9414;DHT22;4746;35.664;139.738;2023-08-06T02:44:26;34.10;99.90
9414;DHT22;4746;35.664;139.738;2023-08-06T02:46:54;34.20;99.90
9414;DHT22;4746;35.664;139.738;2023-08-06T02:49:22;34.20;99.90
9414;DHT22;4746;35.664;139.738;2023-08-06T02:51:51;34.30;99.90
9414;DHT22;4746;35.664;139.738;2023-08-06T02:54:19;34.40;99.90
9414;DHT22;4746;35.664;139.738;2023-08-06T02:56:49;34.50;99.90
9414;DHT22;4746;35.664;139.738;2023-08-06T02:59:17;34.60;99.90
9414;DHT22;4746;35.664;139.738;2023-08-06T03:01:45;34.70;99.90
9414;DHT22;4746;35.664;139.738;2023-08-06T03:04:12;34.70;99.90
9414;DHT22;4746;35.664;139.738;2023-08-06T03:06:40;34.70;99.90
9414;DHT22;4746;35.664;139.738;2023-08-06T03:09:07;34.80;99.90
9414;DHT22;4746;35.664;139.738;2023-08-06T03:11:35;34.80;99.90
9414;DHT22;4746;35.664;139.738;2023-08-06T03:14:02;34.80;99.90
9414;DHT22;4746;35.664;139.738;2023-08-06T03:16:30;34.90;99.90
9414;DHT22;4746;35.664;139.738;2023-08-06T03:18:57;34.80;99.90
9414;DHT22;4746;35.664;139.738;2023-08-06T03:21:25;34.80;99.90
9414;DHT22;4746;35.664;139.738;2023-08-06T03:23:53;34.70;99.90
9414;DHT22;4746;35.664;139.738;2023-08-06T03:26:20;34.50;99.90
9414;DHT22;4746;35.664;139.738;2023-08-06T03:28:48;34.30;99.90
9414;DHT22;4746;35.664;139.738;2023-08-06T03:31:15;34.10;99.90
9414;DHT22;4746;35.664;139.738;2023-08-06T03:33:43;34.00;99.90
9414;DHT22;4746;35.664;139.738;2023-08-06T03:36:10;33.90;99.90
9414;DHT22;4746;35.664;139.738;2023-08-06T03:38:38;33.90;99.90
9414;DHT22;4746;35.664;139.738;2023-08-06T03:41:05;33.80;99.90
9414;DHT22;4746;35.664;139.738;2023-08-06T03:43:33;33.80;99.90
9414;DHT22;4746;35.664;139.738;2023-08-06T03:46:00;33.90;99.90
9414;DHT22;4746;35.664;139.738;2023-08-06T03:48:28;33.90;99.90
9414;DHT22;4746;35.664;139.738;2023-08-06T03:50:57;34.00;99.90
9414;DHT22;4746;35.664;139.738;2023-08-06T03:53:29;34.20;99.90
9414;DHT22;4746;35.664;139.738;2023-08-06T03:55:56;34.30;99.90
9414;DHT22;4746;35.664;139.738;2023-08-06T03:58:26;34.10;99.90
9414;DHT22;4746;35.664;139.738;2023-08-06T04:01:03;34.00;99.90
9414;DHT22;4746;35.664;139.738;2023-08-06T04:03:31;33.80;99.90
9414;DHT22;4746;35.664;139.738;2023-08-06T04:05:58;33.70;99.90
9414;DHT22;4746;35.664;139.738;2023-08-06T04:08:27;33.70;99.90
9414;DHT22;4746;35.664;139.738;2023-08-06T04:10:54;33.80;99.90
9414;DHT22;4746;35.664;139.738;2023-08-06T04:13:22;34.00;99.90
9414;DHT22;4746;35.664;139.738;2023-08-06T04:15:49;34.10;99.90
9414;DHT22;4746;35.664;139.738;2023-08-06T04:18:17;34.20;99.90
9414;DHT22;4746;35.664;139.738;2023-08-06T04:20:48;34.40;99.90
9414;DHT22;4746;35.664;139.738;2023-08-06T04:23:15;34.40;99.90
9414;DHT22;4746;35.664;139.738;2023-08-06T04:25:43;34.40;99.90
9414;DHT22;4746;35.664;139.738;2023-08-06T04:28:11;34.20;99.90
9414;DHT22;4746;35.664;139.738;2023-08-06T04:30:38;34.10;99.90
9414;DHT22;4746;35.664;139.738;2023-08-06T04:33:06;34.10;99.90
9414;DHT22;4746;35.664;139.738;2023-08-06T04:35:33;34.10;99.90
9414;DHT22;4746;35.664;139.738;2023-08-06T04:38:01;34.30;99.90
9414;DHT22;4746;35.664;139.738;2023-08-06T04:40:28;34.30;99.90
9414;DHT22;4746;35.664;139.738;2023-08-06T04:42:56;34.30;99.90
9414;DHT22;4746;35.664;139.738;2023-08-06T04:45:23;34.20;99.90
9414;DHT22;4746;35.664;139.738;2023-08-06T04:47:52;34.20;99.90
9414;DHT22;4746;35.664;139.738;2023-08-06T04:50:20;34.30;99.90
9414;DHT22;4746;35.664;139.738;2023-08-06T04:52:48;34.50;99.90
9414;DHT22;4746;35.664;139.738;2023-08-06T04:55:15;34.70;99.90
9414;DHT22;4746;35.664;139.738;2023-08-06T04:57:44;34.80;99.90
9414;DHT22;4746;35.664;139.738;2023-08-06T05:00:14;35.00;99.90
9414;DHT22;4746;35.664;139.738;2023-08-06T05:02:42;35.00;99.90
9414;DHT22;4746;35.664;139.738;2023-08-06T05:05:09;35.10;99.90
9414;DHT22;4746;35.664;139.738;2023-08-06T05:07:37;35.00;99.90
9414;DHT22;4746;35.664;139.738;2023-08-06T05:10:05;35.00;99.90
9414;DHT22;4746;35.664;139.738;2023-08-06T05:12:33;35.00;99.90
9414;DHT22;4746;35.664;139.738;2023-08-06T05:15:00;35.10;99.90
9414;DHT22;4746;35.664;139.738;2023-08-06T05:17:27;35.20;99.90
9414;DHT22;4746;35.664;139.738;2023-08-06T05:19:55;35.30;99.90
9414;DHT22;4746;35.664;139.738;2023-08-06T05:22:24;35.10;99.90
9414;DHT22;4746;35.664;139.738;2023-08-06T05:24:52;35.20;99.90
9414;DHT22;4746;35.664;139.738;2023-08-06T05:27:20;35.50;99.90
9414;DHT22;4746;35.664;139.738;2023-08-06T05:29:48;35.70;99.90
9414;DHT22;4746;35.664;139.738;2023-08-06T05:32:15;36.00;99.90
9414;DHT22;4746;35.664;139.738;2023-08-06T05:34:43;36.10;99.90
9414;DHT22;4746;35.664;139.738;2023-08-06T05:37:10;36.30;99.90
9414;DHT22;4746;35.664;139.738;2023-08-06T05:39:38;36.50;99.90
9414;DHT22;4746;35.664;139.738;2023-08-06T05:42:06;36.80;99.90
9414;DHT22;4746;35.664;139.738;2023-08-06T05:44:35;37.00;99.90
9414;DHT22;4746;35.664;139.738;2023-08-06T05:47:03;37.20;99.90
9414;DHT22;4746;35.664;139.738;2023-08-06T05:49:30;36.80;99.90
9414;DHT22;4746;35.664;139.738;2023-08-06T05:51:58;36.50;99.90
9414;DHT22;4746;35.664;139.738;2023-08-06T05:54:26;36.00;99.90
9414;DHT22;4746;35.664;139.738;2023-08-06T05:56:53;35.60;99.90
9414;DHT22;4746;35.664;139.738;2023-08-06T05:59:21;35.00;99.90
9414;DHT22;4746;35.664;139.738;2023-08-06T06:01:48;34.70;99.90
9414;DHT22;4746;35.664;139.738;2023-08-06T06:04:16;34.40;99.90
9414;DHT22;4746;35.664;139.738;2023-08-06T06:06:43;34.30;99.90
9414;DHT22;4746;35.664;139.738;2023-08-06T06:09:11;34.20;99.90
9414;DHT22;4746;35.664;139.738;2023-08-06T06:11:38;34.10;99.90
9414;DHT22;4746;35.664;139.738;2023-08-06T06:14:06;33.80;99.90
9414;DHT22;4746;35.664;139.738;2023-08-06T06:16:34;33.70;99.90
9414;DHT22;4746;35.664;139.738;2023-08-06T06:19:02;33.50;99.90
9414;DHT22;4746;35.664;139.738;2023-08-06T06:21:29;33.40;99.90
9414;DHT22;4746;35.664;139.738;2023-08-06T06:23:57;33.30;99.90
9414;DHT22;4746;35.664;139.738;2023-08-06T06:26:24;33.20;99.90
9414;DHT22;4746;35.664;139.738;2023-08-06T06:28:52;33.20;99.90
9414;DHT22;4746;35.664;139.738;2023-08-06T06:31:19;33.30;99.90
9414;DHT22;4746;35.664;139.738;2023-08-06T06:33:47;33.60;99.90
9414;DHT22;4746;35.664;139.738;2023-08-06T06:36:14;33.90;99.90
9414;DHT22;4746;35.664;139.738;2023-08-06T06:38:42;34.30;99.90
9414;DHT22;4746;35.664;139.738;2023-08-06T06:41:09;34.70;99.90
9414;DHT22;4746;35.664;139.738;2023-08-06T06:43:37;35.10;99.90
9414;DHT22;4746;35.664;139.738;2023-08-06T06:46:06;35.70;99.90
9414;DHT22;4746;35.664;139.738;2023-08-06T06:48:33;36.60;99.90
9414;DHT22;4746;35.664;139.738;2023-08-06T06:51:01;37.00;99.90
9414;DHT22;4746;35.664;139.738;2023-08-06T06:53:29;36.80;99.90
9414;DHT22;4746;35.664;139.738;2023-08-06T06:56:03;35.70;99.90
9414;DHT22;4746;35.664;139.738;2023-08-06T06:58:32;35.00;99.90
9414;DHT22;4746;35.664;139.738;2023-08-06T07:01:01;34.20;99.90
9414;DHT22;4746;35.664;139.738;2023-08-06T07:03:29;33.50;99.90
9414;DHT22;4746;35.664;139.738;2023-08-06T07:06:00;33.00;99.90
9414;DHT22;4746;35.664;139.738;2023-08-06T07:08:29;32.70;99.90
9414;DHT22;4746;35.664;139.738;2023-08-06T07:11:02;32.70;99.90
9414;DHT22;4746;35.664;139.738;2023-08-06T07:13:36;33.00;99.90
9414;DHT22;4746;35.664;139.738;2023-08-06T07:16:05;33.80;99.90
9414;DHT22;4746;35.664;139.738;2023-08-06T07:18:32;34.40;99.90
9414;DHT22;4746;35.664;139.738;2023-08-06T07:21:00;34.50;99.90
9414;DHT22;4746;35.664;139.738;2023-08-06T07:23:28;34.50;99.90
9414;DHT22;4746;35.664;139.738;2023-08-06T07:25:55;34.30;99.90
9414;DHT22;4746;35.664;139.738;2023-08-06T07:28:24;34.00;99.90
9414;DHT22;4746;35.664;139.738;2023-08-06T07:30:52;33.60;99.90
9414;DHT22;4746;35.664;139.738;2023-08-06T07:33:20;33.40;99.90
9414;DHT22;4746;35.664;139.738;2023-08-06T07:35:48;33.30;99.90
9414;DHT22;4746;35.664;139.738;2023-08-06T07:38:15;33.70;99.90
9414;DHT22;4746;35.664;139.738;2023-08-06T07:40:43;34.30;99.90
9414;DHT22;4746;35.664;139.738;2023-08-06T07:43:11;34.50;99.90
9414;DHT22;4746;35.664;139.738;2023-08-06T07:45:39;34.40;99.90
9414;DHT22;4746;35.664;139.738;2023-08-06T07:48:06;34.20;99.90
9414;DHT22;4746;35.664;139.738;2023-08-06T07:50:36;34.10;99.90
9414;DHT22;4746;35.664;139.738;2023-08-06T07:53:03;34.40;99.90
9414;DHT22;4746;35.664;139.738;2023-08-06T07:55:31;34.80;99.90
9414;DHT22;4746;35.664;139.738;2023-08-06T07:57:58;34.90;99.90
9414;DHT22;4746;35.664;139.738;2023-08-06T08:00:26;34.80;99.90
9414;DHT22;4746;35.664;139.738;2023-08-06T08:02:54;34.70;99.90
9414;DHT22;4746;35.664;139.738;2023-08-06T08:05:21;34.70;99.90
9414;DHT22;4746;35.664;139.738;2023-08-06T08:07:49;34.60;99.90
9414;DHT22;4746;35.664;139.738;2023-08-06T08:10:16;34.20;99.90
9414;DHT22;4746;35.664;139.738;2023-08-06T08:12:44;34.00;99.90
9414;DHT22;4746;35.664;139.738;2023-08-06T08:15:14;33.60;99.90
9414;DHT22;4746;35.664;139.738;2023-08-06T08:17:41;33.40;99.90
9414;DHT22;4746;35.664;139.738;2023-08-06T08:20:09;33.30;99.90
9414;DHT22;4746;35.664;139.738;2023-08-06T08:22:37;33.20;99.90
9414;DHT22;4746;35.664;139.738;2023-08-06T08:25:05;33.00;99.90
9414;DHT22;4746;35.664;139.738;2023-08-06T08:27:32;32.90;99.90
9414;DHT22;4746;35.664;139.738;2023-08-06T08:30:00;32.70;99.90
9414;DHT22;4746;35.664;139.738;2023-08-06T08:32:27;32.30;99.90
9414;DHT22;4746;35.664;139.738;2023-08-06T08:34:55;32.10;99.90
9414;DHT22;4746;35.664;139.738;2023-08-06T08:37:23;32.00;99.90
9414;DHT22;4746;35.664;139.738;2023-08-06T08:39:52;31.90;99.90
9414;DHT22;4746;35.664;139.738;2023-08-06T08:42:22;32.00;99.90
9414;DHT22;4746;35.664;139.738;2023-08-06T08:44:51;32.50;99.90
9414;DHT22;4746;35.664;139.738;2023-08-06T08:47:20;33.00;99.90
9414;DHT22;4746;35.664;139.738;2023-08-06T08:49:49;33.00;99.90
9414;DHT22;4746;35.664;139.738;2023-08-06T08:52:24;33.30;99.90
9414;DHT22;4746;35.664;139.738;2023-08-06T08:54:54;33.50;99.90
9414;DHT22;4746;35.664;139.738;2023-08-06T08:57:24;33.60;99.90
9414;DHT22;4746;35.664;139.738;2023-08-06T08:59:51;33.70;99.90
9414;DHT22;4746;35.664;139.738;2023-08-06T09:02:36;33.80;99.90
9414;DHT22;4746;35.664;139.738;2023-08-06T09:05:06;33.70;99.90
9414;DHT22;4746;35.664;139.738;2023-08-06T09:07:47;33.80;99.90
9414;DHT22;4746;35.664;139.738;2023-08-06T09:10:18;33.90;99.90
9414;DHT22;4746;35.664;139.738;2023-08-06T09:12:51;34.10;99.90
9414;DHT22;4746;35.664;139.738;2023-08-06T09:15:23;34.00;99.90
9414;DHT22;4746;35.664;139.738;2023-08-06T09:17:54;33.70;99.90
9414;DHT22;4746;35.664;139.738;2023-08-06T09:20:22;33.30;99.90
9414;DHT22;4746;35.664;139.738;2023-08-06T09:22:53;32.90;99.90
9414;DHT22;4746;35.664;139.738;2023-08-06T09:25:24;32.50;99.90
9414;DHT22;4746;35.664;139.738;2023-08-06T09:27:53;32.10;99.90
9414;DHT22;4746;35.664;139.738;2023-08-06T09:30:33;31.80;99.90
9414;DHT22;4746;35.664;139.738;2023-08-06T09:33:18;31.60;99.90
9414;DHT22;4746;35.664;139.738;2023-08-06T09:35:47;31.50;99.90
9414;DHT22;4746;35.664;139.738;2023-08-06T09:38:14;31.30;99.90
9414;DHT22;4746;35.664;139.738;2023-08-06T09:40:42;31.10;99.90
9414;DHT22;4746;35.664;139.738;2023-08-06T09:43:12;31.00;99.90
9414;DHT22;4746;35.664;139.738;2023-08-06T09:45:42;30.80;99.90
9414;DHT22;4746;35.664;139.738;2023-08-06T09:48:10;30.60;99.90
9414;DHT22;4746;35.664;139.738;2023-08-06T09:50:39;30.50;99.90
9414;DHT22;4746;35.664;139.738;2023-08-06T09:53:08;30.40;99.90
9414;DHT22;4746;35.664;139.738;2023-08-06T09:55:37;30.30;99.90
9414;DHT22;4746;35.664;139.738;2023-08-06T09:58:06;30.20;99.90
9414;DHT22;4746;35.664;139.738;2023-08-06T10:00:35;30.20;99.90
9414;DHT22;4746;35.664;139.738;2023-08-06T10:03:08;30.20;99.90
9414;DHT22;4746;35.664;139.738;2023-08-06T10:05:37;30.20;99.90
9414;DHT22;4746;35.664;139.738;2023-08-06T10:08:06;30.10;99.90
9414;DHT22;4746;35.664;139.738;2023-08-06T10:10:34;30.10;99.90
9414;DHT22;4746;35.664;139.738;2023-08-06T10:13:04;30.10;99.90
9414;DHT22;4746;35.664;139.738;2023-08-06T10:15:36;30.00;99.90
9414;DHT22;4746;35.664;139.738;2023-08-06T10:18:06;29.90;99.90
9414;DHT22;4746;35.664;139.738;2023-08-06T10:20:35;29.90;99.90
9414;DHT22;4746;35.664;139.738;2023-08-06T10:23:04;29.90;99.90
9414;DHT22;4746;35.664;139.738;2023-08-06T10:25:40;29.80;99.90
9414;DHT22;4746;35.664;139.738;2023-08-06T10:28:10;29.80;99.90
9414;DHT22;4746;35.664;139.738;2023-08-06T10:30:45;29.80;99.90
9414;DHT22;4746;35.664;139.738;2023-08-06T10:33:14;29.80;99.90
9414;DHT22;4746;35.664;139.738;2023-08-06T10:35:44;29.70;99.90
9414;DHT22;4746;35.664;139.738;2023-08-06T10:38:21;29.50;99.90
9414;DHT22;4746;35.664;139.738;2023-08-06T10:43:30;29.30;99.90
9414;DHT22;4746;35.664;139.738;2023-08-06T10:46:10;29.30;99.90
9414;DHT22;4746;35.664;139.738;2023-08-06T10:48:40;29.30;99.90
9414;DHT22;4746;35.664;139.738;2023-08-06T10:51:10;29.30;99.90
9414;DHT22;4746;35.664;139.738;2023-08-06T10:53:45;29.30;99.90
9414;DHT22;4746;35.664;139.738;2023-08-06T10:56:21;29.30;99.90
9414;DHT22;4746;35.664;139.738;2023-08-06T10:58:57;29.30;99.90
9414;DHT22;4746;35.664;139.738;2023-08-06T11:01:28;29.30;99.90
9414;DHT22;4746;35.664;139.738;2023-08-06T11:04:02;29.30;99.90
9414;DHT22;4746;35.664;139.738;2023-08-06T11:06:31;29.20;99.90
9414;DHT22;4746;35.664;139.738;2023-08-06T11:08:59;29.20;99.90
9414;DHT22;4746;35.664;139.738;2023-08-06T11:11:28;29.20;99.90
9414;DHT22;4746;35.664;139.738;2023-08-06T11:13:56;29.20;99.90
9414;DHT22;4746;35.664;139.738;2023-08-06T11:16:24;29.20;99.90
9414;DHT22;4746;35.664;139.738;2023-08-06T11:18:52;29.10;99.90
9414;DHT22;4746;35.664;139.738;2023-08-06T11:21:21;29.20;99.90
9414;DHT22;4746;35.664;139.738;2023-08-06T11:23:51;29.20;99.90
9414;DHT22;4746;35.664;139.738;2023-08-06T11:26:20;29.20;99.90
9414;DHT22;4746;35.664;139.738;2023-08-06T11:28:49;29.30;99.90
9414;DHT22;4746;35.664;139.738;2023-08-06T11:31:21;29.30;99.90
9414;DHT22;4746;35.664;139.738;2023-08-06T11:33:56;29.20;99.90
9414;DHT22;4746;35.664;139.738;2023-08-06T11:36:34;29.20;99.90
9414;DHT22;4746;35.664;139.738;2023-08-06T11:39:09;29.20;99.90
9414;DHT22;4746;35.664;139.738;2023-08-06T11:41:37;29.10;99.90
9414;DHT22;4746;35.664;139.738;2023-08-06T11:44:06;29.10;99.90
9414;DHT22;4746;35.664;139.738;2023-08-06T11:46:56;29.10;99.90
9414;DHT22;4746;35.664;139.738;2023-08-06T11:49:45;29.10;99.90
9414;DHT22;4746;35.664;139.738;2023-08-06T11:57:32;29.10;99.90
9414;DHT22;4746;35.664;139.738;2023-08-06T12:00:12;29.10;99.90
9414;DHT22;4746;35.664;139.738;2023-08-06T12:02:46;29.00;99.90
9414;DHT22;4746;35.664;139.738;2023-08-06T12:05:16;29.00;99.90
9414;DHT22;4746;35.664;139.738;2023-08-06T12:07:49;29.10;99.90
9414;DHT22;4746;35.664;139.738;2023-08-06T12:10:18;29.10;99.90
9414;DHT22;4746;35.664;139.738;2023-08-06T12:12:47;29.10;99.90
9414;DHT22;4746;35.664;139.738;2023-08-06T12:15:15;29.00;99.90
9414;DHT22;4746;35.664;139.738;2023-08-06T12:17:45;29.00;99.90
9414;DHT22;4746;35.664;139.738;2023-08-06T12:20:13;28.90;99.90
9414;DHT22;4746;35.664;139.738;2023-08-06T12:22:43;28.90;99.90
9414;DHT22;4746;35.664;139.738;2023-08-06T12:25:12;28.90;99.90
9414;DHT22;4746;35.664;139.738;2023-08-06T12:27:44;28.90;99.90
9414;DHT22;4746;35.664;139.738;2023-08-06T12:30:13;28.90;99.90
9414;DHT22;4746;35.664;139.738;2023-08-06T12:32:41;28.90;99.90
9414;DHT22;4746;35.664;139.738;2023-08-06T12:35:09;28.80;99.90
9414;DHT22;4746;35.664;139.738;2023-08-06T12:37:37;28.80;99.90
9414;DHT22;4746;35.664;139.738;2023-08-06T12:40:10;28.70;99.90
9414;DHT22;4746;35.664;139.738;2023-08-06T12:42:38;28.70;99.90
9414;DHT22;4746;35.664;139.738;2023-08-06T12:45:05;28.70;99.90
9414;DHT22;4746;35.664;139.738;2023-08-06T12:47:36;28.70;99.90
9414;DHT22;4746;35.664;139.738;2023-08-06T12:50:07;28.70;99.90
9414;DHT22;4746;35.664;139.738;2023-08-06T12:52:35;28.80;99.90
9414;DHT22;4746;35.664;139.738;2023-08-06T12:55:03;28.80;99.90
9414;DHT22;4746;35.664;139.738;2023-08-06T12:57:31;28.80;99.90
9414;DHT22;4746;35.664;139.738;2023-08-06T13:00:00;28.90;99.90
9414;DHT22;4746;35.664;139.738;2023-08-06T13:02:28;28.90;99.90
9414;DHT22;4746;35.664;139.738;2023-08-06T13:04:56;28.90;99.90
9414;DHT22;4746;35.664;139.738;2023-08-06T13:07:24;28.90;99.90
9414;DHT22;4746;35.664;139.738;2023-08-06T13:09:51;28.90;99.90
9414;DHT22;4746;35.664;139.738;2023-08-06T13:12:20;28.90;99.90
9414;DHT22;4746;35.664;139.738;2023-08-06T13:14:49;29.00;99.90
9414;DHT22;4746;35.664;139.738;2023-08-06T13:17:19;28.90;99.90
9414;DHT22;4746;35.664;139.738;2023-08-06T13:19:46;28.90;99.90
9414;DHT22;4746;35.664;139.738;2023-08-06T13:22:14;28.80;99.90
9414;DHT22;4746;35.664;139.738;2023-08-06T13:24:41;28.80;99.90
9414;DHT22;4746;35.664;139.738;2023-08-06T13:27:09;28.80;99.90
9414;DHT22;4746;35.664;139.738;2023-08-06T13:29:36;28.80;99.90
9414;DHT22;4746;35.664;139.738;2023-08-06T13:32:04;28.70;99.90
9414;DHT22;4746;35.664;139.738;2023-08-06T13:34:32;28.70;99.90
9414;DHT22;4746;35.664;139.738;2023-08-06T13:36:59;28.60;99.90
9414;DHT22;4746;35.664;139.738;2023-08-06T13:39:28;28.60;99.90
9414;DHT22;4746;35.664;139.738;2023-08-06T13:41:59;28.70;99.90
9414;DHT22;4746;35.664;139.738;2023-08-06T13:44:28;28.60;99.90
9414;DHT22;4746;35.664;139.738;2023-08-06T13:46:56;28.60;99.90
9414;DHT22;4746;35.664;139.738;2023-08-06T13:49:23;28.60;99.90
9414;DHT22;4746;35.664;139.738;2023-08-06T13:51:51;28.60;99.90
9414;DHT22;4746;35.664;139.738;2023-08-06T13:54:18;28.60;99.90
9414;DHT22;4746;35.664;139.738;2023-08-06T13:56:47;28.50;99.90
9414;DHT22;4746;35.664;139.738;2023-08-06T13:59:16;28.40;99.90
9414;DHT22;4746;35.664;139.738;2023-08-06T14:01:45;28.30;99.90
9414;DHT22;4746;35.664;139.738;2023-08-06T14:04:15;28.20;99.90
9414;DHT22;4746;35.664;139.738;2023-08-06T14:06:42;28.20;99.90
9414;DHT22;4746;35.664;139.738;2023-08-06T14:09:10;28.20;99.90
9414;DHT22;4746;35.664;139.738;2023-08-06T14:11:40;28.10;99.90
9414;DHT22;4746;35.664;139.738;2023-08-06T14:14:07;28.10;99.90
9414;DHT22;4746;35.664;139.738;2023-08-06T14:16:35;28.10;99.90
9414;DHT22;4746;35.664;139.738;2023-08-06T14:19:03;28.10;99.90
9414;DHT22;4746;35.664;139.738;2023-08-06T14:21:31;28.10;99.90
9414;DHT22;4746;35.664;139.738;2023-08-06T14:23:58;28.10;99.90
9414;DHT22;4746;35.664;139.738;2023-08-06T14:26:26;28.10;99.90
9414;DHT22;4746;35.664;139.738;2023-08-06T14:28:53;28.20;99.90
9414;DHT22;4746;35.664;139.738;2023-08-06T14:31:21;28.20;99.90
9414;DHT22;4746;35.664;139.738;2023-08-06T14:33:48;28.20;99.90
9414;DHT22;4746;35.664;139.738;2023-08-06T14:36:17;28.20;99.90
9414;DHT22;4746;35.664;139.738;2023-08-06T14:38:45;28.20;99.90
9414;DHT22;4746;35.664;139.738;2023-08-06T14:41:13;28.20;99.90
9414;DHT22;4746;35.664;139.738;2023-08-06T14:43:40;28.20;99.90
9414;DHT22;4746;35.664;139.738;2023-08-06T14:46:08;28.20;99.90
9414;DHT22;4746;35.664;139.738;2023-08-06T14:48:36;28.30;99.90
9414;DHT22;4746;35.664;139.738;2023-08-06T14:51:03;28.30;99.90
9414;DHT22;4746;35.664;139.738;2023-08-06T14:53:31;28.20;99.90
9414;DHT22;4746;35.664;139.738;2023-08-06T14:55:58;28.30;99.90
9414;DHT22;4746;35.664;139.738;2023-08-06T14:58:26;28.30;99.90
9414;DHT22;4746;35.664;139.738;2023-08-06T15:00:53;28.30;99.90
9414;DHT22;4746;35.664;139.738;2023-08-06T15:03:21;28.30;99.90
9414;DHT22;4746;35.664;139.738;2023-08-06T15:05:49;28.30;99.90
9414;DHT22;4746;35.664;139.738;2023-08-06T15:08:17;28.30;99.90
9414;DHT22;4746;35.664;139.738;2023-08-06T15:10:50;28.30;99.90
9414;DHT22;4746;35.664;139.738;2023-08-06T15:13:19;28.20;99.90
9414;DHT22;4746;35.664;139.738;2023-08-06T15:15:48;28.20;99.90
9414;DHT22;4746;35.664;139.738;2023-08-06T15:18:16;28.20;99.90
9414;DHT22;4746;35.664;139.738;2023-08-06T15:20:45;28.20;99.90
9414;DHT22;4746;35.664;139.738;2023-08-06T15:23:13;28.10;99.90
9414;DHT22;4746;35.664;139.738;2023-08-06T15:25:41;28.10;99.90
9414;DHT22;4746;35.664;139.738;2023-08-06T15:28:08;28.10;99.90
9414;DHT22;4746;35.664;139.738;2023-08-06T15:30:36;28.10;99.90
9414;DHT22;4746;35.664;139.738;2023-08-06T15:33:03;28.10;99.90
9414;DHT22;4746;35.664;139.738;2023-08-06T15:35:31;28.10;99.90
9414;DHT22;4746;35.664;139.738;2023-08-06T15:37:58;28.10;99.90
9414;DHT22;4746;35.664;139.738;2023-08-06T15:40:26;28.10;99.90
9414;DHT22;4746;35.664;139.738;2023-08-06T15:42:54;28.10;99.90
9414;DHT22;4746;35.664;139.738;2023-08-06T15:45:22;28.10;99.90
9414;DHT22;4746;35.664;139.738;2023-08-06T15:47:49;28.10;99.90
9414;DHT22;4746;35.664;139.738;2023-08-06T15:50:17;28.10;99.90
9414;DHT22;4746;35.664;139.738;2023-08-06T15:52:44;28.10;99.90
9414;DHT22;4746;35.664;139.738;2023-08-06T15:55:13;28.10;99.90